Página principal
METAR-TAF:

METAR-TAF

Aeroportos :

Wallis, França

latitude: 13-14S, longitude: 176-10W, altura: 23 m

METAR: em falta

Hora: 12:21 (00:21 UTC)

Previsão

O boletim foi feito há 1 hora e 21 minutos, às 23:00 UTC
Previsão válida de 26 às 00 UTC a 26 às 24 UTC
Vento 12 kt de este
Visibilidade 10 km ou mais
Poucas nuvensa uma altura de 2500 ft
Temporariamente
de 26 às 06 UTC a 26 às 21 UTC
Visibilidade: 4000 m
Poucas nuvensa uma altura de 2000 ft, Cumulonimbus.
aguaceiros de chuva

TAF: NLWW 252300Z 2600/2624 09012KT 9999 FEW025 TEMPO 2606/2621 4000 SHRA FEW020CB

Observações e previsões do tempo de mais de 4000 aeroportos (mensagens METAR e TAF).

As estações disponíveis são os pontos amarelos e vermelhos sobre o mapa.

Mova o rato sobre o mapa para ver o nome da estação.

Depois clique no ponto para visualizar as observações e previsões meteorológicas.

Para alterar o mapa : clique nos botões verdes com uma cruz preta para aumentar o zoom; no botão verde com uma pitada de zoom; ou nas setas verdes para mapas adjacentes.


METAR-TAF: